Kennebec River @ North Sidney, Me

Kennebec River at North Sidney
 Total Drainage Area: 5,403 sq. miles 
 Drainage Area Controlled by Corps Dams: 0 sq. miles (0%) 
 Warning Flow/Stage: 62,000 cfs / 17.0 feet 
 Flood Flow/Stage: 113,000 cfs / 25.0 feet 
Date Time
(Eastern)
Stage
(ft)
Flow
(cfs)
CSM
(cfs / sq. mi.)
Jan-31 03:15 pm 8.38 11,182 2.1
Jan-31 02:15 pm 8.47 11,592 2.2
Jan-31 01:15 pm 8.55 11,962 2.2
Jan-31 12:15 pm 8.58 12,103 2.2
Jan-31 11:15 am 8.58 12,103 2.2
Jan-31 10:15 am 8.57 12,056 2.2
Jan-31 09:15 am 8.55 11,962 2.2
Jan-31 08:15 am 8.52 11,823 2.2
Jan-31 07:15 am 8.52 11,823 2.2
Jan-31 06:15 am 8.52 11,823 2.2
Jan-31 05:15 am 8.52 11,823 2.2
Jan-31 04:15 am 8.52 11,823 2.2
Jan-31 03:15 am 8.51 11,776 2.2
Jan-31 02:15 am 8.51 11,776 2.2
Jan-31 01:15 am 8.51 11,776 2.2
Jan-31 12:15 am 8.51 11,776 2.2
Jan-30 11:15 pm 8.51 11,776 2.2
Jan-30 10:15 pm 8.51 11,776 2.2
Jan-30 09:15 pm 8.50 11,730 2.2
Jan-30 08:15 pm 8.50 11,730 2.2
Jan-30 07:15 pm 8.50 11,730 2.2
Jan-30 06:15 pm 8.49 11,684 2.2
Jan-30 05:15 pm 8.49 11,684 2.2
Jan-30 04:15 pm 8.48 11,638 2.2
Jan-30 03:15 pm 8.45 11,500 2.1
Report Generated January 31, 2023 03:42 pm